sensor_id;sensor_type;location;lat;lon;timestamp;P1;durP1;ratioP1;P2;durP2;ratioP2
20000;SDS011;10161;41.188;-8.642;2023-04-09T00:02:00;10.83;;;8.23;;
20000;SDS011;10161;41.188;-8.642;2023-04-09T00:04:27;9.70;;;8.30;;
20000;SDS011;10161;41.188;-8.642;2023-04-09T00:06:54;9.77;;;7.40;;
20000;SDS011;10161;41.188;-8.642;2023-04-09T00:09:22;11.07;;;8.47;;
20000;SDS011;10161;41.188;-8.642;2023-04-09T00:11:49;9.90;;;8.23;;
20000;SDS011;10161;41.188;-8.642;2023-04-09T00:14:16;9.93;;;8.00;;
20000;SDS011;10161;41.188;-8.642;2023-04-09T00:16:44;12.00;;;8.20;;
20000;SDS011;10161;41.188;-8.642;2023-04-09T00:19:11;12.37;;;7.47;;
20000;SDS011;10161;41.188;-8.642;2023-04-09T00:21:38;11.33;;;8.50;;
20000;SDS011;10161;41.188;-8.642;2023-04-09T00:24:05;9.80;;;8.20;;
20000;SDS011;10161;41.188;-8.642;2023-04-09T00:26:33;9.17;;;7.83;;
20000;SDS011;10161;41.188;-8.642;2023-04-09T00:29:00;12.50;;;9.60;;
20000;SDS011;10161;41.188;-8.642;2023-04-09T00:31:27;12.37;;;9.33;;
20000;SDS011;10161;41.188;-8.642;2023-04-09T00:33:57;14.17;;;11.13;;
20000;SDS011;10161;41.188;-8.642;2023-04-09T00:36:24;15.60;;;11.23;;
20000;SDS011;10161;41.188;-8.642;2023-04-09T00:38:51;14.80;;;11.80;;
20000;SDS011;10161;41.188;-8.642;2023-04-09T00:41:19;17.23;;;11.50;;
20000;SDS011;10161;41.188;-8.642;2023-04-09T00:43:46;14.40;;;11.50;;
20000;SDS011;10161;41.188;-8.642;2023-04-09T00:46:13;17.27;;;11.27;;
20000;SDS011;10161;41.188;-8.642;2023-04-09T00:48:40;13.30;;;10.87;;
20000;SDS011;10161;41.188;-8.642;2023-04-09T00:51:09;15.13;;;10.70;;
20000;SDS011;10161;41.188;-8.642;2023-04-09T00:53:35;16.10;;;11.20;;
20000;SDS011;10161;41.188;-8.642;2023-04-09T00:56:03;13.20;;;10.40;;
20000;SDS011;10161;41.188;-8.642;2023-04-09T00:58:31;13.20;;;9.07;;
20000;SDS011;10161;41.188;-8.642;2023-04-09T01:00:58;10.90;;;9.30;;
20000;SDS011;10161;41.188;-8.642;2023-04-09T01:03:25;13.20;;;9.80;;
20000;SDS011;10161;41.188;-8.642;2023-04-09T01:05:53;15.27;;;11.40;;
20000;SDS011;10161;41.188;-8.642;2023-04-09T01:08:34;12.50;;;10.80;;
20000;SDS011;10161;41.188;-8.642;2023-04-09T01:11:05;16.57;;;11.50;;
20000;SDS011;10161;41.188;-8.642;2023-04-09T01:13:38;15.20;;;10.93;;
20000;SDS011;10161;41.188;-8.642;2023-04-09T01:16:08;17.90;;;11.37;;
20000;SDS011;10161;41.188;-8.642;2023-04-09T01:18:37;17.00;;;10.80;;
20000;SDS011;10161;41.188;-8.642;2023-04-09T01:21:08;14.20;;;9.57;;
20000;SDS011;10161;41.188;-8.642;2023-04-09T01:23:42;13.30;;;8.93;;
20000;SDS011;10161;41.188;-8.642;2023-04-09T01:26:15;13.80;;;9.97;;
20000;SDS011;10161;41.188;-8.642;2023-04-09T01:28:50;13.83;;;10.83;;
20000;SDS011;10161;41.188;-8.642;2023-04-09T01:31:19;12.23;;;10.00;;
20000;SDS011;10161;41.188;-8.642;2023-04-09T01:33:50;14.07;;;10.97;;
20000;SDS011;10161;41.188;-8.642;2023-04-09T01:36:18;15.60;;;10.00;;
20000;SDS011;10161;41.188;-8.642;2023-04-09T01:38:45;12.50;;;8.70;;
20000;SDS011;10161;41.188;-8.642;2023-04-09T01:41:16;13.80;;;9.87;;
20000;SDS011;10161;41.188;-8.642;2023-04-09T01:43:44;14.63;;;9.50;;
20000;SDS011;10161;41.188;-8.642;2023-04-09T01:46:13;14.23;;;9.07;;
20000;SDS011;10161;41.188;-8.642;2023-04-09T01:48:41;10.47;;;8.40;;
20000;SDS011;10161;41.188;-8.642;2023-04-09T01:51:09;14.30;;;9.30;;
20000;SDS011;10161;41.188;-8.642;2023-04-09T01:53:38;9.97;;;8.90;;
20000;SDS011;10161;41.188;-8.642;2023-04-09T01:56:05;12.97;;;9.80;;
20000;SDS011;10161;41.188;-8.642;2023-04-09T01:58:32;11.53;;;9.20;;
20000;SDS011;10161;41.188;-8.642;2023-04-09T02:01:01;13.80;;;9.80;;
20000;SDS011;10161;41.188;-8.642;2023-04-09T02:03:36;10.40;;;9.30;;
20000;SDS011;10161;41.188;-8.642;2023-04-09T02:06:08;14.07;;;11.20;;
20000;SDS011;10161;41.188;-8.642;2023-04-09T02:08:39;22.77;;;13.50;;
20000;SDS011;10161;41.188;-8.642;2023-04-09T02:11:09;14.83;;;12.10;;
20000;SDS011;10161;41.188;-8.642;2023-04-09T02:13:36;15.57;;;11.23;;
20000;SDS011;10161;41.188;-8.642;2023-04-09T02:16:06;18.10;;;13.93;;
20000;SDS011;10161;41.188;-8.642;2023-04-09T02:18:35;18.67;;;13.10;;
20000;SDS011;10161;41.188;-8.642;2023-04-09T02:21:02;15.73;;;11.60;;
20000;SDS011;10161;41.188;-8.642;2023-04-09T02:23:30;19.80;;;13.23;;
20000;SDS011;10161;41.188;-8.642;2023-04-09T02:25:57;16.87;;;11.87;;
20000;SDS011;10161;41.188;-8.642;2023-04-09T02:28:24;15.50;;;11.60;;
20000;SDS011;10161;41.188;-8.642;2023-04-09T02:30:51;20.47;;;12.37;;
20000;SDS011;10161;41.188;-8.642;2023-04-09T02:33:18;16.47;;;12.00;;
20000;SDS011;10161;41.188;-8.642;2023-04-09T02:35:47;13.07;;;10.43;;
20000;SDS011;10161;41.188;-8.642;2023-04-09T02:38:13;16.80;;;11.50;;
20000;SDS011;10161;41.188;-8.642;2023-04-09T02:40:41;18.30;;;11.33;;
20000;SDS011;10161;41.188;-8.642;2023-04-09T02:43:08;17.70;;;12.30;;
20000;SDS011;10161;41.188;-8.642;2023-04-09T02:45:35;14.37;;;11.53;;
20000;SDS011;10161;41.188;-8.642;2023-04-09T02:48:03;15.03;;;10.63;;
20000;SDS011;10161;41.188;-8.642;2023-04-09T02:50:30;17.73;;;10.30;;
20000;SDS011;10161;41.188;-8.642;2023-04-09T02:53:00;14.00;;;10.57;;
20000;SDS011;10161;41.188;-8.642;2023-04-09T02:55:27;16.83;;;10.60;;
20000;SDS011;10161;41.188;-8.642;2023-04-09T02:57:54;17.67;;;11.73;;
20000;SDS011;10161;41.188;-8.642;2023-04-09T03:00:23;15.80;;;10.17;;
20000;SDS011;10161;41.188;-8.642;2023-04-09T03:02:50;13.63;;;9.67;;
20000;SDS011;10161;41.188;-8.642;2023-04-09T03:05:16;20.73;;;13.80;;
20000;SDS011;10161;41.188;-8.642;2023-04-09T03:07:43;27.90;;;16.73;;
20000;SDS011;10161;41.188;-8.642;2023-04-09T03:10:12;30.90;;;17.20;;
20000;SDS011;10161;41.188;-8.642;2023-04-09T03:12:39;29.17;;;17.77;;
20000;SDS011;10161;41.188;-8.642;2023-04-09T03:15:08;41.23;;;18.20;;
20000;SDS011;10161;41.188;-8.642;2023-04-09T03:17:35;24.17;;;17.13;;
20000;SDS011;10161;41.188;-8.642;2023-04-09T03:20:03;26.13;;;17.30;;
20000;SDS011;10161;41.188;-8.642;2023-04-09T03:22:34;31.07;;;16.90;;
20000;SDS011;10161;41.188;-8.642;2023-04-09T03:25:01;23.80;;;15.07;;
20000;SDS011;10161;41.188;-8.642;2023-04-09T03:27:30;26.83;;;16.77;;
20000;SDS011;10161;41.188;-8.642;2023-04-09T03:29:57;21.03;;;16.57;;
20000;SDS011;10161;41.188;-8.642;2023-04-09T03:32:24;24.27;;;15.73;;
20000;SDS011;10161;41.188;-8.642;2023-04-09T03:34:51;22.93;;;15.20;;
20000;SDS011;10161;41.188;-8.642;2023-04-09T03:37:19;22.60;;;15.97;;
20000;SDS011;10161;41.188;-8.642;2023-04-09T03:39:46;22.53;;;16.13;;
20000;SDS011;10161;41.188;-8.642;2023-04-09T03:42:13;23.40;;;15.33;;
20000;SDS011;10161;41.188;-8.642;2023-04-09T03:44:42;25.30;;;15.13;;
20000;SDS011;10161;41.188;-8.642;2023-04-09T03:47:09;24.03;;;15.00;;
20000;SDS011;10161;41.188;-8.642;2023-04-09T03:49:36;20.70;;;15.00;;
20000;SDS011;10161;41.188;-8.642;2023-04-09T03:52:05;32.27;;;14.93;;
20000;SDS011;10161;41.188;-8.642;2023-04-09T03:54:31;24.83;;;16.73;;
20000;SDS011;10161;41.188;-8.642;2023-04-09T03:56:58;18.23;;;15.17;;
20000;SDS011;10161;41.188;-8.642;2023-04-09T03:59:25;31.97;;;17.73;;
20000;SDS011;10161;41.188;-8.642;2023-04-09T04:01:53;25.57;;;15.73;;
20000;SDS011;10161;41.188;-8.642;2023-04-09T04:04:20;18.77;;;13.97;;
20000;SDS011;10161;41.188;-8.642;2023-04-09T04:06:47;24.07;;;15.20;;
20000;SDS011;10161;41.188;-8.642;2023-04-09T04:09:15;26.80;;;15.43;;
20000;SDS011;10161;41.188;-8.642;2023-04-09T04:11:42;26.93;;;16.17;;
20000;SDS011;10161;41.188;-8.642;2023-04-09T04:14:08;28.13;;;17.53;;
20000;SDS011;10161;41.188;-8.642;2023-04-09T04:16:37;23.33;;;17.10;;
20000;SDS011;10161;41.188;-8.642;2023-04-09T04:19:07;23.43;;;15.33;;
20000;SDS011;10161;41.188;-8.642;2023-04-09T04:21:34;25.03;;;14.57;;
20000;SDS011;10161;41.188;-8.642;2023-04-09T04:24:01;22.67;;;15.93;;
20000;SDS011;10161;41.188;-8.642;2023-04-09T04:26:28;25.10;;;16.43;;
20000;SDS011;10161;41.188;-8.642;2023-04-09T04:28:55;19.53;;;14.33;;
20000;SDS011;10161;41.188;-8.642;2023-04-09T04:31:22;23.93;;;15.50;;
20000;SDS011;10161;41.188;-8.642;2023-04-09T04:33:49;17.63;;;13.80;;
20000;SDS011;10161;41.188;-8.642;2023-04-09T04:36:18;21.70;;;14.10;;
20000;SDS011;10161;41.188;-8.642;2023-04-09T04:38:44;22.20;;;14.60;;
20000;SDS011;10161;41.188;-8.642;2023-04-09T04:41:11;23.17;;;14.60;;
20000;SDS011;10161;41.188;-8.642;2023-04-09T04:43:38;19.77;;;14.00;;
20000;SDS011;10161;41.188;-8.642;2023-04-09T04:46:06;18.27;;;14.10;;
20000;SDS011;10161;41.188;-8.642;2023-04-09T04:48:33;25.60;;;17.93;;
20000;SDS011;10161;41.188;-8.642;2023-04-09T04:51:00;18.60;;;15.03;;
20000;SDS011;10161;41.188;-8.642;2023-04-09T04:53:29;19.60;;;14.50;;
20000;SDS011;10161;41.188;-8.642;2023-04-09T04:55:56;24.97;;;17.00;;
20000;SDS011;10161;41.188;-8.642;2023-04-09T04:58:23;31.33;;;18.20;;
20000;SDS011;10161;41.188;-8.642;2023-04-09T05:00:50;27.87;;;17.80;;
20000;SDS011;10161;41.188;-8.642;2023-04-09T05:03:17;24.87;;;17.20;;
20000;SDS011;10161;41.188;-8.642;2023-04-09T05:05:44;28.27;;;18.47;;
20000;SDS011;10161;41.188;-8.642;2023-04-09T05:08:11;23.97;;;18.00;;
20000;SDS011;10161;41.188;-8.642;2023-04-09T05:10:41;26.47;;;18.80;;
20000;SDS011;10161;41.188;-8.642;2023-04-09T05:13:08;25.93;;;18.37;;
20000;SDS011;10161;41.188;-8.642;2023-04-09T05:15:38;27.10;;;19.37;;
20000;SDS011;10161;41.188;-8.642;2023-04-09T05:18:05;25.10;;;18.73;;
20000;SDS011;10161;41.188;-8.642;2023-04-09T05:20:33;27.20;;;18.40;;
20000;SDS011;10161;41.188;-8.642;2023-04-09T05:23:00;25.50;;;19.10;;
20000;SDS011;10161;41.188;-8.642;2023-04-09T05:25:27;26.30;;;17.97;;
20000;SDS011;10161;41.188;-8.642;2023-04-09T05:27:55;19.73;;;16.50;;
20000;SDS011;10161;41.188;-8.642;2023-04-09T05:30:22;23.40;;;16.97;;
20000;SDS011;10161;41.188;-8.642;2023-04-09T05:32:49;23.80;;;17.60;;
20000;SDS011;10161;41.188;-8.642;2023-04-09T05:35:16;23.07;;;17.57;;
20000;SDS011;10161;41.188;-8.642;2023-04-09T05:37:43;27.87;;;19.80;;
20000;SDS011;10161;41.188;-8.642;2023-04-09T05:40:11;27.13;;;18.20;;
20000;SDS011;10161;41.188;-8.642;2023-04-09T05:42:39;30.27;;;19.90;;
20000;SDS011;10161;41.188;-8.642;2023-04-09T05:45:08;27.90;;;20.33;;
20000;SDS011;10161;41.188;-8.642;2023-04-09T05:47:36;28.07;;;17.80;;
20000;SDS011;10161;41.188;-8.642;2023-04-09T05:50:03;22.73;;;18.07;;
20000;SDS011;10161;41.188;-8.642;2023-04-09T05:52:30;29.30;;;18.80;;
20000;SDS011;10161;41.188;-8.642;2023-04-09T05:54:57;27.73;;;19.30;;
20000;SDS011;10161;41.188;-8.642;2023-04-09T05:57:24;28.13;;;19.30;;
20000;SDS011;10161;41.188;-8.642;2023-04-09T05:59:51;21.10;;;18.50;;
20000;SDS011;10161;41.188;-8.642;2023-04-09T06:02:20;22.43;;;18.73;;
20000;SDS011;10161;41.188;-8.642;2023-04-09T06:04:47;21.53;;;17.57;;
20000;SDS011;10161;41.188;-8.642;2023-04-09T06:07:14;20.63;;;17.00;;
20000;SDS011;10161;41.188;-8.642;2023-04-09T06:09:42;18.50;;;16.23;;
20000;SDS011;10161;41.188;-8.642;2023-04-09T06:12:11;16.70;;;14.67;;
20000;SDS011;10161;41.188;-8.642;2023-04-09T06:14:37;15.90;;;14.30;;
20000;SDS011;10161;41.188;-8.642;2023-04-09T06:17:04;15.70;;;14.07;;
20000;SDS011;10161;41.188;-8.642;2023-04-09T06:19:33;15.63;;;13.83;;
20000;SDS011;10161;41.188;-8.642;2023-04-09T06:21:59;15.80;;;14.20;;
20000;SDS011;10161;41.188;-8.642;2023-04-09T06:24:26;17.97;;;15.10;;
20000;SDS011;10161;41.188;-8.642;2023-04-09T06:26:53;19.47;;;15.03;;
20000;SDS011;10161;41.188;-8.642;2023-04-09T06:29:22;15.53;;;13.93;;
20000;SDS011;10161;41.188;-8.642;2023-04-09T06:31:49;16.03;;;14.30;;
20000;SDS011;10161;41.188;-8.642;2023-04-09T06:34:15;17.10;;;14.33;;
20000;SDS011;10161;41.188;-8.642;2023-04-09T06:36:44;17.90;;;14.60;;
20000;SDS011;10161;41.188;-8.642;2023-04-09T06:39:11;17.43;;;15.20;;
20000;SDS011;10161;41.188;-8.642;2023-04-09T06:41:38;17.10;;;13.87;;
20000;SDS011;10161;41.188;-8.642;2023-04-09T06:44:05;14.73;;;13.00;;
20000;SDS011;10161;41.188;-8.642;2023-04-09T06:46:32;16.77;;;13.67;;
20000;SDS011;10161;41.188;-8.642;2023-04-09T06:48:59;16.57;;;14.13;;
20000;SDS011;10161;41.188;-8.642;2023-04-09T06:51:26;15.80;;;13.47;;
20000;SDS011;10161;41.188;-8.642;2023-04-09T06:53:56;15.80;;;13.83;;
20000;SDS011;10161;41.188;-8.642;2023-04-09T06:56:23;18.13;;;14.90;;
20000;SDS011;10161;41.188;-8.642;2023-04-09T06:58:49;17.17;;;13.27;;
20000;SDS011;10161;41.188;-8.642;2023-04-09T07:01:17;17.40;;;13.00;;
20000;SDS011;10161;41.188;-8.642;2023-04-09T07:03:43;17.20;;;13.80;;
20000;SDS011;10161;41.188;-8.642;2023-04-09T07:06:11;15.37;;;12.30;;
20000;SDS011;10161;41.188;-8.642;2023-04-09T07:08:38;16.90;;;13.50;;
20000;SDS011;10161;41.188;-8.642;2023-04-09T07:11:06;15.40;;;12.20;;
20000;SDS011;10161;41.188;-8.642;2023-04-09T07:13:33;15.33;;;11.83;;
20000;SDS011;10161;41.188;-8.642;2023-04-09T07:16:00;13.47;;;10.83;;
20000;SDS011;10161;41.188;-8.642;2023-04-09T07:18:27;13.20;;;10.53;;
20000;SDS011;10161;41.188;-8.642;2023-04-09T07:20:55;16.57;;;10.60;;
20000;SDS011;10161;41.188;-8.642;2023-04-09T07:23:22;16.30;;;11.80;;
20000;SDS011;10161;41.188;-8.642;2023-04-09T07:25:49;13.97;;;11.53;;
20000;SDS011;10161;41.188;-8.642;2023-04-09T07:28:17;15.90;;;11.10;;
20000;SDS011;10161;41.188;-8.642;2023-04-09T07:30:44;13.13;;;9.90;;
20000;SDS011;10161;41.188;-8.642;2023-04-09T07:33:11;17.50;;;12.63;;
20000;SDS011;10161;41.188;-8.642;2023-04-09T07:35:38;15.30;;;11.30;;
20000;SDS011;10161;41.188;-8.642;2023-04-09T07:38:05;19.27;;;12.27;;
20000;SDS011;10161;41.188;-8.642;2023-04-09T07:40:33;16.77;;;12.90;;
20000;SDS011;10161;41.188;-8.642;2023-04-09T07:43:02;19.53;;;13.57;;
20000;SDS011;10161;41.188;-8.642;2023-04-09T07:45:31;21.43;;;14.80;;
20000;SDS011;10161;41.188;-8.642;2023-04-09T07:47:58;20.20;;;15.73;;
20000;SDS011;10161;41.188;-8.642;2023-04-09T07:50:25;21.03;;;15.20;;
20000;SDS011;10161;41.188;-8.642;2023-04-09T07:52:52;30.90;;;17.80;;
20000;SDS011;10161;41.188;-8.642;2023-04-09T07:55:19;22.77;;;17.00;;
20000;SDS011;10161;41.188;-8.642;2023-04-09T07:57:45;34.83;;;23.43;;
20000;SDS011;10161;41.188;-8.642;2023-04-09T08:00:13;39.00;;;20.63;;
20000;SDS011;10161;41.188;-8.642;2023-04-09T08:02:42;41.30;;;20.10;;
20000;SDS011;10161;41.188;-8.642;2023-04-09T08:05:09;33.57;;;19.40;;
20000;SDS011;10161;41.188;-8.642;2023-04-09T08:07:36;35.97;;;21.13;;
20000;SDS011;10161;41.188;-8.642;2023-04-09T08:10:04;36.67;;;24.03;;
20000;SDS011;10161;41.188;-8.642;2023-04-09T08:12:31;39.47;;;22.70;;
20000;SDS011;10161;41.188;-8.642;2023-04-09T08:14:58;37.87;;;21.43;;
20000;SDS011;10161;41.188;-8.642;2023-04-09T08:17:27;28.53;;;19.57;;
20000;SDS011;10161;41.188;-8.642;2023-04-09T08:19:56;37.57;;;20.57;;
20000;SDS011;10161;41.188;-8.642;2023-04-09T08:22:23;39.37;;;21.17;;
20000;SDS011;10161;41.188;-8.642;2023-04-09T08:24:50;32.80;;;18.53;;
20000;SDS011;10161;41.188;-8.642;2023-04-09T08:27:18;43.10;;;21.37;;
20000;SDS011;10161;41.188;-8.642;2023-04-09T08:29:46;33.27;;;19.50;;
20000;SDS011;10161;41.188;-8.642;2023-04-09T08:32:12;26.67;;;16.60;;
20000;SDS011;10161;41.188;-8.642;2023-04-09T08:34:40;38.43;;;20.47;;
20000;SDS011;10161;41.188;-8.642;2023-04-09T08:37:08;37.40;;;18.70;;
20000;SDS011;10161;41.188;-8.642;2023-04-09T08:39:35;31.70;;;18.80;;
20000;SDS011;10161;41.188;-8.642;2023-04-09T08:42:02;35.90;;;18.27;;
20000;SDS011;10161;41.188;-8.642;2023-04-09T08:44:32;33.17;;;17.57;;
20000;SDS011;10161;41.188;-8.642;2023-04-09T08:46:59;22.40;;;14.50;;
20000;SDS011;10161;41.188;-8.642;2023-04-09T08:49:26;25.50;;;14.93;;
20000;SDS011;10161;41.188;-8.642;2023-04-09T08:51:55;27.57;;;14.40;;
20000;SDS011;10161;41.188;-8.642;2023-04-09T08:54:23;20.70;;;14.80;;
20000;SDS011;10161;41.188;-8.642;2023-04-09T08:56:50;19.30;;;13.20;;
20000;SDS011;10161;41.188;-8.642;2023-04-09T08:59:17;19.10;;;14.00;;
20000;SDS011;10161;41.188;-8.642;2023-04-09T09:01:45;25.40;;;15.20;;
20000;SDS011;10161;41.188;-8.642;2023-04-09T09:04:18;17.27;;;13.60;;
20000;SDS011;10161;41.188;-8.642;2023-04-09T09:06:45;22.23;;;16.47;;
20000;SDS011;10161;41.188;-8.642;2023-04-09T09:09:12;27.00;;;16.83;;
20000;SDS011;10161;41.188;-8.642;2023-04-09T09:11:42;28.00;;;16.73;;
20000;SDS011;10161;41.188;-8.642;2023-04-09T09:14:10;29.30;;;17.43;;
20000;SDS011;10161;41.188;-8.642;2023-04-09T09:16:39;27.07;;;16.60;;
20000;SDS011;10161;41.188;-8.642;2023-04-09T09:19:07;27.40;;;16.30;;
20000;SDS011;10161;41.188;-8.642;2023-04-09T09:21:34;26.43;;;16.27;;
20000;SDS011;10161;41.188;-8.642;2023-04-09T09:24:04;22.60;;;16.30;;
20000;SDS011;10161;41.188;-8.642;2023-04-09T09:26:43;33.07;;;18.30;;
20000;SDS011;10161;41.188;-8.642;2023-04-09T09:29:10;25.67;;;17.07;;
20000;SDS011;10161;41.188;-8.642;2023-04-09T09:31:44;19.83;;;13.07;;
20000;SDS011;10161;41.188;-8.642;2023-04-09T09:34:13;21.33;;;13.53;;
20000;SDS011;10161;41.188;-8.642;2023-04-09T09:36:41;15.73;;;13.03;;
20000;SDS011;10161;41.188;-8.642;2023-04-09T09:39:08;24.00;;;14.70;;
20000;SDS011;10161;41.188;-8.642;2023-04-09T09:41:36;19.70;;;15.00;;
20000;SDS011;10161;41.188;-8.642;2023-04-09T09:44:05;23.30;;;14.80;;
20000;SDS011;10161;41.188;-8.642;2023-04-09T09:46:33;24.07;;;16.53;;
20000;SDS011;10161;41.188;-8.642;2023-04-09T09:49:02;30.00;;;16.63;;
20000;SDS011;10161;41.188;-8.642;2023-04-09T09:51:30;20.67;;;15.13;;
20000;SDS011;10161;41.188;-8.642;2023-04-09T09:54:01;30.57;;;16.70;;
20000;SDS011;10161;41.188;-8.642;2023-04-09T09:56:29;25.87;;;15.13;;
20000;SDS011;10161;41.188;-8.642;2023-04-09T09:59:01;18.47;;;13.23;;
20000;SDS011;10161;41.188;-8.642;2023-04-09T10:01:33;26.90;;;15.97;;
20000;SDS011;10161;41.188;-8.642;2023-04-09T10:04:01;21.37;;;14.60;;
20000;SDS011;10161;41.188;-8.642;2023-04-09T10:06:30;19.50;;;15.13;;
20000;SDS011;10161;41.188;-8.642;2023-04-09T10:09:00;19.07;;;13.30;;
20000;SDS011;10161;41.188;-8.642;2023-04-09T10:11:30;19.60;;;13.33;;
20000;SDS011;10161;41.188;-8.642;2023-04-09T10:13:58;15.20;;;12.13;;
20000;SDS011;10161;41.188;-8.642;2023-04-09T10:16:28;14.20;;;10.83;;
20000;SDS011;10161;41.188;-8.642;2023-04-09T10:18:56;17.13;;;11.13;;
20000;SDS011;10161;41.188;-8.642;2023-04-09T10:21:28;14.40;;;10.53;;
20000;SDS011;10161;41.188;-8.642;2023-04-09T10:23:59;15.07;;;9.73;;
20000;SDS011;10161;41.188;-8.642;2023-04-09T10:26:31;11.43;;;9.30;;
20000;SDS011;10161;41.188;-8.642;2023-04-09T10:29:05;13.13;;;9.93;;
20000;SDS011;10161;41.188;-8.642;2023-04-09T10:31:47;9.97;;;8.97;;
20000;SDS011;10161;41.188;-8.642;2023-04-09T10:34:18;14.57;;;10.87;;
20000;SDS011;10161;41.188;-8.642;2023-04-09T10:36:49;12.00;;;9.20;;
20000;SDS011;10161;41.188;-8.642;2023-04-09T10:39:18;17.40;;;10.83;;
20000;SDS011;10161;41.188;-8.642;2023-04-09T10:41:46;13.17;;;10.07;;
20000;SDS011;10161;41.188;-8.642;2023-04-09T10:44:20;15.90;;;10.37;;
20000;SDS011;10161;41.188;-8.642;2023-04-09T10:46:52;13.40;;;10.40;;
20000;SDS011;10161;41.188;-8.642;2023-04-09T10:49:20;15.00;;;12.23;;
20000;SDS011;10161;41.188;-8.642;2023-04-09T10:51:49;16.07;;;11.37;;
20000;SDS011;10161;41.188;-8.642;2023-04-09T10:57:10;19.20;;;12.47;;
20000;SDS011;10161;41.188;-8.642;2023-04-09T10:59:42;18.23;;;13.40;;
20000;SDS011;10161;41.188;-8.642;2023-04-09T11:02:19;21.53;;;14.60;;
20000;SDS011;10161;41.188;-8.642;2023-04-09T11:05:03;22.23;;;14.23;;
20000;SDS011;10161;41.188;-8.642;2023-04-09T11:07:37;15.07;;;13.37;;
20000;SDS011;10161;41.188;-8.642;2023-04-09T11:10:07;13.50;;;12.10;;
20000;SDS011;10161;41.188;-8.642;2023-04-09T11:12:34;15.30;;;12.57;;
20000;SDS011;10161;41.188;-8.642;2023-04-09T11:15:02;12.37;;;11.00;;
20000;SDS011;10161;41.188;-8.642;2023-04-09T11:17:35;17.40;;;11.00;;
20000;SDS011;10161;41.188;-8.642;2023-04-09T11:20:03;14.10;;;10.93;;
20000;SDS011;10161;41.188;-8.642;2023-04-09T11:22:30;12.53;;;9.80;;
20000;SDS011;10161;41.188;-8.642;2023-04-09T11:24:57;15.13;;;10.07;;
20000;SDS011;10161;41.188;-8.642;2023-04-09T11:27:23;18.33;;;10.77;;
20000;SDS011;10161;41.188;-8.642;2023-04-09T11:29:53;11.30;;;9.07;;
20000;SDS011;10161;41.188;-8.642;2023-04-09T11:32:20;17.83;;;10.90;;
20000;SDS011;10161;41.188;-8.642;2023-04-09T11:34:50;15.20;;;11.37;;
20000;SDS011;10161;41.188;-8.642;2023-04-09T11:37:17;13.20;;;10.37;;
20000;SDS011;10161;41.188;-8.642;2023-04-09T11:39:45;15.60;;;11.80;;
20000;SDS011;10161;41.188;-8.642;2023-04-09T11:42:12;14.00;;;9.90;;
20000;SDS011;10161;41.188;-8.642;2023-04-09T11:44:39;17.80;;;10.73;;
20000;SDS011;10161;41.188;-8.642;2023-04-09T11:47:06;15.37;;;10.83;;
20000;SDS011;10161;41.188;-8.642;2023-04-09T11:49:33;12.10;;;9.53;;
20000;SDS011;10161;41.188;-8.642;2023-04-09T11:52:03;14.53;;;9.17;;
20000;SDS011;10161;41.188;-8.642;2023-04-09T11:54:31;14.37;;;9.30;;
20000;SDS011;10161;41.188;-8.642;2023-04-09T11:56:57;19.23;;;10.80;;
20000;SDS011;10161;41.188;-8.642;2023-04-09T11:59:25;22.33;;;11.17;;
20000;SDS011;10161;41.188;-8.642;2023-04-09T12:01:52;15.00;;;9.53;;
20000;SDS011;10161;41.188;-8.642;2023-04-09T12:04:19;10.10;;;7.40;;
20000;SDS011;10161;41.188;-8.642;2023-04-09T12:06:46;10.87;;;8.50;;
20000;SDS011;10161;41.188;-8.642;2023-04-09T12:09:15;17.33;;;9.83;;
20000;SDS011;10161;41.188;-8.642;2023-04-09T12:11:42;8.83;;;7.60;;
20000;SDS011;10161;41.188;-8.642;2023-04-09T12:14:11;10.27;;;7.07;;
20000;SDS011;10161;41.188;-8.642;2023-04-09T12:16:38;15.90;;;9.03;;
20000;SDS011;10161;41.188;-8.642;2023-04-09T12:19:08;12.43;;;7.80;;
20000;SDS011;10161;41.188;-8.642;2023-04-09T12:21:45;13.00;;;8.30;;
20000;SDS011;10161;41.188;-8.642;2023-04-09T12:24:13;16.87;;;8.90;;
20000;SDS011;10161;41.188;-8.642;2023-04-09T12:26:42;22.00;;;9.70;;
20000;SDS011;10161;41.188;-8.642;2023-04-09T12:29:11;18.43;;;8.70;;
20000;SDS011;10161;41.188;-8.642;2023-04-09T12:31:39;18.00;;;8.17;;
20000;SDS011;10161;41.188;-8.642;2023-04-09T12:34:07;19.13;;;9.40;;
20000;SDS011;10161;41.188;-8.642;2023-04-09T12:36:34;18.37;;;9.03;;
20000;SDS011;10161;41.188;-8.642;2023-04-09T12:39:02;13.13;;;7.40;;
20000;SDS011;10161;41.188;-8.642;2023-04-09T12:41:30;16.20;;;8.50;;
20000;SDS011;10161;41.188;-8.642;2023-04-09T12:43:57;19.47;;;8.90;;
20000;SDS011;10161;41.188;-8.642;2023-04-09T12:46:25;12.67;;;7.40;;
20000;SDS011;10161;41.188;-8.642;2023-04-09T12:48:56;24.70;;;9.27;;
20000;SDS011;10161;41.188;-8.642;2023-04-09T12:51:23;17.80;;;7.80;;
20000;SDS011;10161;41.188;-8.642;2023-04-09T12:53:52;17.10;;;7.40;;
20000;SDS011;10161;41.188;-8.642;2023-04-09T12:56:19;15.37;;;8.17;;
20000;SDS011;10161;41.188;-8.642;2023-04-09T12:58:48;16.33;;;7.90;;
20000;SDS011;10161;41.188;-8.642;2023-04-09T13:01:15;15.93;;;8.60;;
20000;SDS011;10161;41.188;-8.642;2023-04-09T13:03:42;16.10;;;6.53;;
20000;SDS011;10161;41.188;-8.642;2023-04-09T13:06:10;11.30;;;6.40;;
20000;SDS011;10161;41.188;-8.642;2023-04-09T13:08:37;14.43;;;5.90;;
20000;SDS011;10161;41.188;-8.642;2023-04-09T13:11:04;10.53;;;5.97;;
20000;SDS011;10161;41.188;-8.642;2023-04-09T13:13:31;9.67;;;5.97;;
20000;SDS011;10161;41.188;-8.642;2023-04-09T13:16:00;13.27;;;6.13;;
20000;SDS011;10161;41.188;-8.642;2023-04-09T13:18:27;9.70;;;6.00;;
20000;SDS011;10161;41.188;-8.642;2023-04-09T13:20:54;12.77;;;5.10;;
20000;SDS011;10161;41.188;-8.642;2023-04-09T13:23:21;10.17;;;4.70;;
20000;SDS011;10161;41.188;-8.642;2023-04-09T13:25:48;11.47;;;5.07;;
20000;SDS011;10161;41.188;-8.642;2023-04-09T13:28:15;11.10;;;4.33;;
20000;SDS011;10161;41.188;-8.642;2023-04-09T13:30:42;11.03;;;4.10;;
20000;SDS011;10161;41.188;-8.642;2023-04-09T13:33:10;9.50;;;4.63;;
20000;SDS011;10161;41.188;-8.642;2023-04-09T13:35:37;8.90;;;4.67;;
20000;SDS011;10161;41.188;-8.642;2023-04-09T13:38:04;10.13;;;4.70;;
20000;SDS011;10161;41.188;-8.642;2023-04-09T13:40:31;8.07;;;4.67;;
20000;SDS011;10161;41.188;-8.642;2023-04-09T13:42:57;9.97;;;4.90;;
20000;SDS011;10161;41.188;-8.642;2023-04-09T13:45:25;9.23;;;4.57;;
20000;SDS011;10161;41.188;-8.642;2023-04-09T13:47:52;9.50;;;4.10;;
20000;SDS011;10161;41.188;-8.642;2023-04-09T13:50:21;7.57;;;4.60;;
20000;SDS011;10161;41.188;-8.642;2023-04-09T13:52:48;11.03;;;4.77;;
20000;SDS011;10161;41.188;-8.642;2023-04-09T13:55:15;8.47;;;4.03;;
20000;SDS011;10161;41.188;-8.642;2023-04-09T13:57:42;12.80;;;4.40;;
20000;SDS011;10161;41.188;-8.642;2023-04-09T14:00:09;8.90;;;3.83;;
20000;SDS011;10161;41.188;-8.642;2023-04-09T14:02:37;9.00;;;4.30;;
20000;SDS011;10161;41.188;-8.642;2023-04-09T14:05:04;6.87;;;3.70;;
20000;SDS011;10161;41.188;-8.642;2023-04-09T14:07:33;7.63;;;4.20;;
20000;SDS011;10161;41.188;-8.642;2023-04-09T14:10:00;6.97;;;3.60;;
20000;SDS011;10161;41.188;-8.642;2023-04-09T14:12:26;6.50;;;3.60;;
20000;SDS011;10161;41.188;-8.642;2023-04-09T14:14:53;6.93;;;3.80;;
20000;SDS011;10161;41.188;-8.642;2023-04-09T14:17:20;6.13;;;4.40;;
20000;SDS011;10161;41.188;-8.642;2023-04-09T14:19:47;5.93;;;3.70;;
20000;SDS011;10161;41.188;-8.642;2023-04-09T14:22:14;7.83;;;4.00;;